Time;durP1;ratioP1;P1;durP2;ratioP2;P2;SDS_P1;SDS_P2;PMS_P1;PMS_P2;Temp;Humidity;BMP_temperature;BMP_pressure;BME280_temperature;BME280_humidity;BME280_pressure;Samples;Min_cycle;Max_cycle;Signal;HPM_P1;HPM_P2
2024/01/31 00:01:39;;;;;;;0.00;0.00;;;8.80;99.90;;;;;;5002246;28;20033;-78
2024/01/31 00:04:06;;;;;;;0.10;0.10;;;8.80;99.90;;;;;;5013867;28;20030;-77
2024/01/31 00:06:32;;;;;;;0.10;0.10;;;8.90;99.90;;;;;;5008838;28;20356;-78
2024/01/31 00:08:58;;;;;;;3.17;1.25;;;9.00;99.90;;;;;;5001246;28;20040;-78
2024/01/31 00:11:28;;;;;;;0.00;0.00;;;8.90;99.90;;;;;;5010919;28;20046;-78
2024/01/31 00:13:57;;;;;;;0.00;0.00;;;8.80;99.90;;;;;;5011983;28;20475;-78
2024/01/31 00:16:23;;;;;;;0.10;0.10;;;8.70;99.90;;;;;;5007850;28;20029;-77
2024/01/31 00:18:50;;;;;;;0.03;0.03;;;8.70;99.90;;;;;;5012003;28;20030;-78
2024/01/31 00:21:19;;;;;;;0.00;0.00;;;8.80;99.90;;;;;;5005056;28;20038;-79
2024/01/31 00:23:46;;;;;;;0.10;0.10;;;9.00;99.90;;;;;;5020951;28;20061;-78
2024/01/31 00:26:12;;;;;;;0.32;0.32;;;8.80;99.90;;;;;;5001995;28;20113;-78
2024/01/31 00:28:38;;;;;;;0.17;0.17;;;8.80;99.90;;;;;;5001056;28;20034;-78
2024/01/31 00:31:04;;;;;;;0.10;0.10;;;8.80;99.90;;;;;;4999803;28;20046;-78
2024/01/31 00:33:30;;;;;;;0.00;0.00;;;8.80;99.90;;;;;;4997911;28;20034;-78
2024/01/31 00:35:56;;;;;;;0.10;0.10;;;8.90;99.90;;;;;;4997659;28;20037;-78
2024/01/31 00:38:22;;;;;;;0.00;0.00;;;9.10;99.90;;;;;;4994935;28;20042;-78
2024/01/31 00:40:48;;;;;;;0.38;0.38;;;9.20;99.90;;;;;;4993898;28;20029;-78
2024/01/31 00:43:14;;;;;;;0.10;0.10;;;9.30;99.90;;;;;;5004355;28;20483;-78
2024/01/31 00:45:39;;;;;;;0.10;0.10;;;9.40;99.90;;;;;;5009087;28;20072;-78
2024/01/31 00:48:06;;;;;;;0.08;0.08;;;9.40;99.90;;;;;;5010067;28;20022;-78
2024/01/31 00:50:31;;;;;;;0.10;0.10;;;9.40;99.90;;;;;;5004378;28;20021;-78
2024/01/31 00:52:57;;;;;;;0.00;0.00;;;9.30;99.90;;;;;;5007407;28;20038;-77
2024/01/31 00:55:23;;;;;;;0.00;0.00;;;9.30;99.90;;;;;;5001741;28;20058;-78
2024/01/31 00:57:49;;;;;;;0.10;0.10;;;9.30;99.90;;;;;;5000424;28;20034;-78
2024/01/31 01:00:15;;;;;;;0.00;0.00;;;9.20;99.90;;;;;;4998481;28;20046;-78
2024/01/31 01:02:41;;;;;;;0.63;0.63;;;9.20;99.90;;;;;;5000821;28;20049;-78
2024/01/31 01:05:08;;;;;;;0.00;0.00;;;9.20;99.90;;;;;;4996901;28;20475;-78
2024/01/31 01:07:41;;;;;;;0.45;0.45;;;9.00;99.90;;;;;;4996596;28;20037;-78
2024/01/31 01:10:12;;;;;;;0.10;0.10;;;8.80;99.90;;;;;;5001009;28;20030;-78
2024/01/31 01:12:39;;;;;;;0.10;0.10;;;8.70;99.90;;;;;;5011772;28;20062;-78
2024/01/31 01:15:05;;;;;;;0.10;0.10;;;8.60;99.90;;;;;;5009026;28;20014;-78
2024/01/31 01:17:32;;;;;;;0.10;0.10;;;8.80;99.90;;;;;;5011393;28;20041;-78
2024/01/31 01:19:58;;;;;;;0.10;0.10;;;8.90;99.90;;;;;;5004293;28;20050;-78
2024/01/31 01:22:23;;;;;;;0.10;0.10;;;9.00;99.90;;;;;;5007475;28;20458;-77
2024/01/31 01:24:49;;;;;;;0.10;0.10;;;8.80;99.90;;;;;;5000834;28;20026;-78
2024/01/31 01:27:15;;;;;;;0.10;0.10;;;9.00;99.90;;;;;;5004770;28;20112;-78
2024/01/31 01:29:41;;;;;;;0.00;0.00;;;9.20;99.90;;;;;;4998252;28;20030;-78
2024/01/31 01:32:07;;;;;;;0.10;0.10;;;9.00;99.90;;;;;;4999589;28;20034;-78
2024/01/31 01:34:33;;;;;;;0.00;0.00;;;8.80;99.90;;;;;;4995805;28;20467;-78
2024/01/31 01:36:58;;;;;;;0.10;0.10;;;8.80;99.90;;;;;;4996646;28;20491;-78
2024/01/31 01:39:24;;;;;;;0.10;0.10;;;8.90;99.90;;;;;;4995431;28;20114;-78
2024/01/31 01:41:51;;;;;;;0.00;0.00;;;8.70;99.90;;;;;;4996788;28;20041;-78
2024/01/31 01:44:17;;;;;;;0.10;0.10;;;8.60;99.90;;;;;;5014821;28;20383;-78
2024/01/31 01:46:44;;;;;;;0.10;0.10;;;8.50;99.90;;;;;;5013792;28;20467;-77
2024/01/31 01:49:12;;;;;;;0.05;0.05;;;8.80;99.90;;;;;;5010375;28;20044;-78
2024/01/31 01:51:39;;;;;;;1.98;0.90;;;8.90;99.90;;;;;;5010772;28;20050;-78
2024/01/31 01:54:06;;;;;;;0.08;0.08;;;8.90;99.90;;;;;;5022337;28;20030;-78
2024/01/31 01:56:33;;;;;;;0.00;0.00;;;8.90;99.90;;;;;;5008413;28;20022;-78
2024/01/31 01:59:00;;;;;;;0.05;0.05;;;8.90;99.90;;;;;;5001951;28;20037;-78
2024/01/31 02:01:27;;;;;;;0.10;0.10;;;8.90;99.90;;;;;;5012408;28;20037;-78
2024/01/31 02:03:58;;;;;;;0.00;0.00;;;8.70;99.90;;;;;;5014826;28;20030;-78
2024/01/31 02:06:24;;;;;;;0.10;0.10;;;8.80;99.90;;;;;;5013171;28;20054;-78
2024/01/31 02:08:51;;;;;;;0.00;0.00;;;8.90;99.90;;;;;;5008987;28;20084;-78
2024/01/31 02:11:16;;;;;;;0.10;0.10;;;9.10;99.90;;;;;;5014474;28;20117;-78
2024/01/31 02:13:42;;;;;;;0.00;0.00;;;9.20;99.90;;;;;;5013735;28;20112;-79
2024/01/31 02:16:08;;;;;;;0.00;0.00;;;9.20;99.90;;;;;;5014794;28;20030;-78
2024/01/31 02:18:34;;;;;;;0.10;0.10;;;9.20;99.90;;;;;;5011458;28;20471;-78
2024/01/31 02:20:59;;;;;;;0.10;0.10;;;9.20;99.90;;;;;;5012506;28;20040;-78
2024/01/31 02:23:25;;;;;;;0.25;0.25;;;9.10;99.90;;;;;;5011576;28;20034;-78
2024/01/31 02:25:51;;;;;;;0.10;0.10;;;9.10;99.90;;;;;;5012789;28;20554;-77
2024/01/31 02:28:17;;;;;;;0.10;0.10;;;9.10;99.90;;;;;;5013134;28;20022;-78
2024/01/31 02:30:43;;;;;;;0.00;0.00;;;9.20;99.90;;;;;;5008866;28;20140;-78
2024/01/31 02:33:09;;;;;;;0.05;0.05;;;9.10;99.90;;;;;;5010521;28;20041;-78
2024/01/31 02:35:35;;;;;;;0.08;0.08;;;9.10;99.90;;;;;;5010718;28;20023;-78
2024/01/31 02:38:01;;;;;;;0.10;0.10;;;9.20;99.90;;;;;;5008868;28;20483;-78
2024/01/31 02:40:29;;;;;;;0.00;0.00;;;9.20;99.90;;;;;;5008028;28;20030;-78
2024/01/31 02:42:56;;;;;;;1.55;0.57;;;8.80;99.90;;;;;;5012587;28;20018;-78
2024/01/31 02:45:22;;;;;;;4.63;0.95;;;8.80;99.90;;;;;;5012867;28;20076;-78
2024/01/31 02:47:48;;;;;;;0.20;0.20;;;8.80;99.90;;;;;;5012328;28;20106;-77
2024/01/31 02:50:14;;;;;;;0.57;0.57;;;8.80;99.90;;;;;;5010114;28;20160;-77
2024/01/31 02:52:40;;;;;;;0.00;0.00;;;8.70;99.90;;;;;;5004247;28;20440;-78
2024/01/31 02:55:06;;;;;;;0.10;0.10;;;8.70;99.90;;;;;;5008670;28;20022;-78
2024/01/31 02:57:32;;;;;;;0.10;0.10;;;8.80;99.90;;;;;;5000555;28;20030;-78
2024/01/31 02:59:58;;;;;;;0.10;0.10;;;8.80;99.90;;;;;;5005149;28;20352;-78
2024/01/31 03:02:24;;;;;;;0.10;0.10;;;8.70;99.90;;;;;;4999771;28;20459;-77
2024/01/31 03:04:49;;;;;;;0.52;0.52;;;8.80;99.90;;;;;;5001310;28;20419;-77
2024/01/31 03:07:16;;;;;;;0.10;0.10;;;8.60;99.90;;;;;;5010184;28;20022;-77
2024/01/31 03:09:41;;;;;;;1.08;0.32;;;8.50;99.90;;;;;;4995531;28;20030;-77
2024/01/31 03:12:07;;;;;;;0.00;0.00;;;8.60;99.90;;;;;;5013379;28;20125;-77
2024/01/31 03:14:34;;;;;;;0.10;0.10;;;8.80;99.90;;;;;;5012356;28;20022;-78
2024/01/31 03:17:00;;;;;;;1.08;0.90;;;8.60;99.90;;;;;;5011571;28;20034;-77
2024/01/31 03:19:31;;;;;;;0.00;0.00;;;8.80;99.90;;;;;;5011768;28;20137;-77
2024/01/31 03:21:58;;;;;;;0.10;0.10;;;8.80;99.90;;;;;;5007262;28;20121;-77
2024/01/31 03:24:24;;;;;;;0.10;0.10;;;8.80;99.90;;;;;;5009846;28;20026;-77
2024/01/31 03:26:51;;;;;;;0.40;0.40;;;8.50;99.90;;;;;;5003288;28;20034;-77
2024/01/31 03:29:17;;;;;;;0.43;0.43;;;8.30;99.90;;;;;;5012852;28;20033;-78
2024/01/31 03:31:43;;;;;;;0.10;0.10;;;8.50;99.90;;;;;;5000102;28;20039;-78
2024/01/31 03:34:09;;;;;;;0.10;0.10;;;8.60;99.90;;;;;;5004033;28;20108;-78
2024/01/31 03:36:36;;;;;;;0.10;0.10;;;8.60;99.90;;;;;;4997025;28;20113;-78
2024/01/31 03:39:02;;;;;;;0.10;0.10;;;8.60;99.90;;;;;;4999709;28;20030;-78
2024/01/31 03:41:28;;;;;;;1.00;0.75;;;8.40;99.90;;;;;;4996177;28;20025;-78
2024/01/31 03:43:55;;;;;;;0.22;0.22;;;8.60;99.90;;;;;;5010898;28;20049;-78
2024/01/31 03:46:21;;;;;;;0.10;0.10;;;8.70;99.90;;;;;;5001121;28;20022;-78
2024/01/31 03:48:47;;;;;;;0.10;0.10;;;8.60;99.90;;;;;;5011365;28;20092;-78
2024/01/31 03:51:24;;;;;;;0.63;0.63;;;8.70;99.90;;;;;;5009464;28;20475;-78
2024/01/31 03:53:50;;;;;;;0.20;0.20;;;9.00;99.90;;;;;;5007344;28;20038;-78
2024/01/31 03:56:16;;;;;;;0.00;0.00;;;9.00;99.90;;;;;;5007959;28;20021;-78
2024/01/31 03:58:43;;;;;;;0.08;0.08;;;8.70;99.90;;;;;;5008962;28;20025;-77
2024/01/31 04:01:13;;;;;;;0.10;0.10;;;8.70;99.90;;;;;;5003906;28;20018;-78
2024/01/31 04:03:39;;;;;;;0.10;0.10;;;8.70;99.90;;;;;;5008534;28;20073;-76
2024/01/31 04:06:05;;;;;;;0.30;0.30;;;8.60;99.90;;;;;;5000491;28;20030;-79
2024/01/31 04:08:31;;;;;;;0.10;0.10;;;8.70;99.90;;;;;;4999347;28;20026;-78
2024/01/31 04:10:57;;;;;;;0.82;0.82;;;8.50;99.90;;;;;;4996046;28;20030;-78
2024/01/31 04:13:23;;;;;;;0.00;0.00;;;8.50;99.90;;;;;;5011667;28;20018;-78
2024/01/31 04:15:49;;;;;;;0.90;0.40;;;8.70;99.90;;;;;;5011952;28;20022;-78
2024/01/31 04:18:14;;;;;;;0.03;0.03;;;8.70;99.90;;;;;;5009435;28;20037;-77
2024/01/31 04:20:41;;;;;;;0.05;0.05;;;8.60;99.90;;;;;;5010272;28;20030;-78
2024/01/31 04:23:07;;;;;;;0.10;0.10;;;8.60;99.90;;;;;;5007332;28;20190;-78
2024/01/31 04:25:33;;;;;;;0.10;0.10;;;8.50;99.90;;;;;;5006174;28;20017;-77
2024/01/31 04:27:59;;;;;;;0.10;0.10;;;8.20;99.90;;;;;;5009109;28;20034;-76
2024/01/31 04:30:25;;;;;;;0.30;0.30;;;8.10;99.90;;;;;;5017042;28;20053;-78
2024/01/31 04:32:51;;;;;;;0.10;0.10;;;8.30;99.90;;;;;;5002457;28;20414;-77
2024/01/31 04:35:17;;;;;;;0.10;0.10;;;8.40;99.90;;;;;;4998357;28;20030;-78
2024/01/31 04:37:42;;;;;;;0.95;0.95;;;8.50;99.90;;;;;;5000540;28;20045;-77
2024/01/31 04:40:09;;;;;;;0.10;0.10;;;8.40;99.90;;;;;;4996236;28;20026;-77
2024/01/31 04:42:35;;;;;;;0.52;0.47;;;8.50;99.90;;;;;;4996442;28;20026;-77
2024/01/31 04:45:02;;;;;;;0.47;0.47;;;8.60;99.90;;;;;;4992679;28;20069;-78
2024/01/31 04:47:27;;;;;;;2.50;2.30;;;8.60;99.90;;;;;;4995635;28;20517;-76
2024/01/31 04:49:58;;;;;;;3.75;1.00;;;8.40;99.90;;;;;;5011582;28;20053;-78
2024/01/31 04:52:24;;;;;;;1.65;1.50;;;8.40;99.90;;;;;;5008086;28;20042;-78
2024/01/31 04:54:53;;;;;;;0.10;0.10;;;8.50;99.90;;;;;;5009694;28;20022;-77
2024/01/31 04:57:19;;;;;;;0.30;0.30;;;8.70;99.90;;;;;;5003880;28;20041;-78
2024/01/31 04:59:45;;;;;;;0.25;0.25;;;8.80;99.90;;;;;;5006896;28;20060;-78
2024/01/31 05:02:11;;;;;;;0.68;0.68;;;8.70;99.90;;;;;;5001677;28;20058;-77
2024/01/31 05:04:37;;;;;;;0.00;0.00;;;8.40;99.90;;;;;;5002882;28;20356;-77
2024/01/31 05:07:03;;;;;;;0.17;0.17;;;8.40;99.90;;;;;;4999159;28;20029;-78
2024/01/31 05:09:29;;;;;;;0.05;0.05;;;8.50;99.90;;;;;;5013149;28;20026;-78
2024/01/31 05:11:55;;;;;;;0.28;0.28;;;8.80;99.90;;;;;;5007623;28;20446;-77
2024/01/31 05:14:22;;;;;;;0.00;0.00;;;8.70;99.90;;;;;;5005503;28;20025;-77
2024/01/31 05:16:48;;;;;;;0.10;0.10;;;8.60;99.90;;;;;;5014707;28;20389;-77
2024/01/31 05:19:14;;;;;;;0.10;0.10;;;8.60;99.90;;;;;;5014121;28;20025;-78
2024/01/31 05:21:50;;;;;;;0.10;0.10;;;8.50;99.90;;;;;;5011848;28;20034;-77
2024/01/31 05:24:17;;;;;;;0.03;0.03;;;8.50;99.90;;;;;;4998873;28;20026;-77
2024/01/31 05:26:45;;;;;;;1.45;0.63;;;8.40;99.90;;;;;;5011307;28;20033;-76
2024/01/31 05:29:10;;;;;;;1.50;1.40;;;8.40;99.90;;;;;;5002927;28;20113;-78
2024/01/31 05:31:36;;;;;;;0.45;0.45;;;8.40;99.90;;;;;;5010275;28;20113;-76
2024/01/31 05:34:02;;;;;;;0.10;0.10;;;8.50;99.90;;;;;;5005869;28;20029;-77
2024/01/31 05:36:28;;;;;;;0.10;0.10;;;8.50;99.90;;;;;;5000459;28;20384;-77
2024/01/31 05:38:54;;;;;;;0.10;0.10;;;8.50;99.90;;;;;;5000348;28;20053;-77
2024/01/31 05:41:20;;;;;;;0.60;0.60;;;8.50;99.90;;;;;;4998275;28;20079;-76
2024/01/31 05:43:46;;;;;;;0.75;0.63;;;8.40;99.90;;;;;;4997578;28;20038;-77
2024/01/31 05:46:16;;;;;;;0.10;0.10;;;8.40;99.90;;;;;;5002503;28;20018;-77
2024/01/31 05:48:43;;;;;;;1.10;1.10;;;8.40;99.90;;;;;;5013987;28;20037;-77
2024/01/31 05:51:09;;;;;;;0.47;0.45;;;8.40;99.90;;;;;;5012199;28;20041;-77
2024/01/31 05:53:35;;;;;;;0.10;0.10;;;8.30;99.90;;;;;;5011726;28;20049;-76
2024/01/31 05:56:02;;;;;;;3.17;1.42;;;8.60;99.90;;;;;;5023246;28;20033;-77
2024/01/31 05:58:29;;;;;;;4.57;2.00;;;8.50;99.90;;;;;;5014485;28;20041;-78
2024/01/31 06:00:56;;;;;;;0.65;0.65;;;8.30;99.90;;;;;;5004752;28;20034;-77
2024/01/31 06:03:24;;;;;;;0.28;0.28;;;8.40;99.90;;;;;;5007249;28;20053;-77
2024/01/31 06:05:51;;;;;;;0.35;0.35;;;8.40;99.90;;;;;;4999572;28;20077;-78
2024/01/31 06:08:18;;;;;;;5.13;0.80;;;8.40;99.90;;;;;;4998909;28;20029;-77
2024/01/31 06:10:49;;;;;;;5.78;1.95;;;8.40;99.90;;;;;;4998157;28;20030;-78
2024/01/31 06:13:16;;;;;;;0.55;0.38;;;8.60;99.90;;;;;;4999247;28;20036;-78
2024/01/31 06:15:41;;;;;;;1.17;0.85;;;8.50;99.90;;;;;;5014726;28;20022;-78
2024/01/31 06:18:07;;;;;;;0.60;0.60;;;8.40;99.90;;;;;;5014838;28;20414;-77
2024/01/31 06:20:39;;;;;;;2.30;2.10;;;8.40;99.90;;;;;;5012620;28;20054;-78
2024/01/31 06:23:06;;;;;;;2.58;1.98;;;8.40;99.90;;;;;;5012709;28;20041;-78
2024/01/31 06:25:32;;;;;;;0.05;0.05;;;8.50;99.90;;;;;;5006672;28;20097;-78
2024/01/31 06:27:58;;;;;;;3.00;2.65;;;8.30;99.90;;;;;;5012379;28;20172;-78
2024/01/31 06:30:31;;;;;;;0.45;0.45;;;8.40;99.90;;;;;;5004386;28;20084;-78
2024/01/31 06:33:05;;;;;;;3.30;0.98;;;8.30;99.90;;;;;;5005523;28;20037;-77
2024/01/31 06:35:32;;;;;;;3.13;1.55;;;8.30;99.90;;;;;;5018730;28;20518;-78
2024/01/31 06:37:58;;;;;;;0.50;0.50;;;8.40;99.90;;;;;;5002429;28;20072;-78
2024/01/31 06:40:24;;;;;;;6.47;1.42;;;8.30;99.90;;;;;;5014500;28;20117;-78
2024/01/31 06:42:50;;;;;;;5.40;1.48;;;8.40;99.90;;;;;;4994093;28;20534;-78
2024/01/31 06:45:15;;;;;;;0.88;0.88;;;8.50;99.90;;;;;;4996864;28;20030;-77
2024/01/31 06:47:42;;;;;;;1.20;1.10;;;8.30;99.90;;;;;;4995949;28;20391;-77
2024/01/31 06:50:08;;;;;;;2.40;0.82;;;8.40;99.90;;;;;;5005762;28;20022;-77
2024/01/31 06:52:34;;;;;;;0.30;0.30;;;8.40;99.90;;;;;;5012761;28;20042;-77
2024/01/31 06:55:01;;;;;;;2.60;2.05;;;8.20;99.90;;;;;;5012204;28;20463;-77
2024/01/31 06:57:29;;;;;;;0.82;0.82;;;8.30;99.90;;;;;;5007317;28;20026;-78
2024/01/31 06:59:55;;;;;;;1.85;1.05;;;8.20;99.90;;;;;;5010077;28;20458;-78
2024/01/31 07:02:21;;;;;;;3.30;1.90;;;8.20;99.90;;;;;;5004837;28;20042;-78
2024/01/31 07:04:46;;;;;;;0.70;0.70;;;8.20;99.90;;;;;;5007337;28;20105;-77
2024/01/31 07:07:13;;;;;;;19.25;3.35;;;8.10;99.90;;;;;;5002145;28;20034;-76
2024/01/31 07:09:39;;;;;;;1.38;0.98;;;8.00;99.90;;;;;;5019882;28;21020;-77
2024/01/31 07:12:05;;;;;;;0.10;0.10;;;8.10;99.90;;;;;;4999348;28;20034;-77
2024/01/31 07:14:31;;;;;;;0.10;0.10;;;8.20;99.90;;;;;;5008109;28;20029;-77
2024/01/31 07:16:57;;;;;;;2.20;2.00;;;8.20;99.90;;;;;;5007817;28;20041;-77
2024/01/31 07:19:22;;;;;;;2.67;2.13;;;8.40;99.90;;;;;;5007570;28;20026;-77
2024/01/31 07:21:48;;;;;;;0.28;0.28;;;8.40;99.90;;;;;;5019176;28;20054;-77
2024/01/31 07:24:14;;;;;;;0.00;0.00;;;8.50;99.90;;;;;;5007722;28;20030;-77
2024/01/31 07:26:41;;;;;;;4.40;4.13;;;8.40;99.90;;;;;;5005230;28;20080;-76
2024/01/31 07:29:08;;;;;;;0.10;0.10;;;8.50;99.90;;;;;;5003965;28;20518;-78
2024/01/31 07:31:34;;;;;;;0.15;0.15;;;8.80;99.90;;;;;;5002787;28;20517;-78
2024/01/31 07:34:00;;;;;;;0.10;0.10;;;8.70;99.90;;;;;;5005665;28;20045;-77
2024/01/31 07:36:25;;;;;;;0.47;0.47;;;8.60;99.90;;;;;;4995520;28;20026;-77
2024/01/31 07:38:51;;;;;;;1.63;1.52;;;8.60;99.90;;;;;;4994631;28;20034;-76
2024/01/31 07:41:17;;;;;;;7.13;2.65;;;8.70;99.90;;;;;;5004575;28;20021;-77
2024/01/31 07:43:43;;;;;;;5.57;2.55;;;8.80;99.90;;;;;;4991375;28;20096;-77
2024/01/31 07:46:09;;;;;;;1.90;1.80;;;8.70;99.90;;;;;;4998169;28;20061;-79
2024/01/31 07:48:34;;;;;;;0.35;0.35;;;8.70;99.90;;;;;;5008476;28;20029;-74
2024/01/31 07:51:04;;;;;;;0.65;0.40;;;8.80;99.90;;;;;;5005025;28;20030;-77
2024/01/31 07:53:33;;;;;;;0.95;0.95;;;8.90;99.90;;;;;;5007925;28;20038;-77
2024/01/31 07:55:59;;;;;;;1.13;0.73;;;9.00;99.90;;;;;;5001649;28;20030;-78
2024/01/31 07:58:25;;;;;;;0.30;0.30;;;9.00;99.90;;;;;;5004819;28;20038;-78
2024/01/31 08:00:51;;;;;;;0.10;0.10;;;8.70;99.90;;;;;;4996517;28;20034;-78
2024/01/31 08:03:17;;;;;;;0.10;0.10;;;8.90;99.90;;;;;;4998923;28;20557;-78
2024/01/31 08:05:42;;;;;;;0.35;0.35;;;9.20;99.90;;;;;;4999475;28;20029;-77
2024/01/31 08:08:08;;;;;;;0.10;0.10;;;9.10;99.90;;;;;;5006019;28;20033;-77
2024/01/31 08:10:34;;;;;;;0.90;0.90;;;8.80;99.90;;;;;;4992192;28;20061;-78
2024/01/31 08:13:00;;;;;;;1.80;1.65;;;8.90;99.90;;;;;;5003024;28;20103;-78
2024/01/31 08:15:26;;;;;;;18.55;5.47;;;8.90;99.90;;;;;;5007884;28;20101;-77
2024/01/31 08:17:55;;;;;;;7.72;4.00;;;8.80;99.90;;;;;;5006278;28;20041;-76
2024/01/31 08:20:21;;;;;;;8.13;3.88;;;8.80;99.90;;;;;;4990871;28;20083;-77
2024/01/31 08:22:47;;;;;;;2.10;1.45;;;8.90;99.90;;;;;;5005957;28;20030;-78
2024/01/31 08:25:13;;;;;;;0.70;0.70;;;8.90;99.90;;;;;;5002076;28;20030;-77
2024/01/31 08:27:39;;;;;;;4.05;0.90;;;8.70;99.90;;;;;;5004364;28;20028;-77
2024/01/31 08:30:05;;;;;;;1.50;1.10;;;8.50;99.90;;;;;;4996452;28;20022;-77
2024/01/31 08:32:35;;;;;;;0.35;0.35;;;8.50;99.90;;;;;;5007253;28;20121;-77
2024/01/31 08:35:05;;;;;;;0.13;0.13;;;8.70;99.90;;;;;;5000965;28;20767;-77
2024/01/31 08:37:30;;;;;;;0.70;0.50;;;8.60;99.90;;;;;;4997380;28;20037;-77
2024/01/31 08:39:56;;;;;;;2.15;2.05;;;8.70;99.90;;;;;;5008689;28;20026;-77
2024/01/31 08:42:23;;;;;;;0.93;0.65;;;8.90;99.90;;;;;;5008185;28;20093;-77
2024/01/31 08:44:49;;;;;;;9.50;5.78;;;8.80;99.90;;;;;;5010873;28;20471;-77
2024/01/31 08:47:15;;;;;;;0.30;0.30;;;8.70;99.90;;;;;;5008662;28;20049;-78
2024/01/31 08:49:40;;;;;;;0.68;0.68;;;8.90;99.90;;;;;;5008416;28;20089;-78
2024/01/31 08:52:06;;;;;;;0.55;0.55;;;8.70;99.90;;;;;;5005233;28;20045;-77
2024/01/31 08:54:32;;;;;;;2.10;1.75;;;8.70;99.90;;;;;;5020259;28;20045;-77
2024/01/31 08:56:58;;;;;;;11.68;3.80;;;8.80;99.90;;;;;;5002700;28;20037;-77
2024/01/31 08:59:24;;;;;;;0.60;0.60;;;8.80;99.90;;;;;;5001970;28;20041;-77
2024/01/31 09:01:49;;;;;;;1.98;1.75;;;8.60;99.90;;;;;;4990650;28;20034;-77
2024/01/31 09:04:15;;;;;;;6.82;2.80;;;8.50;99.90;;;;;;5010994;28;20065;-75
2024/01/31 09:06:42;;;;;;;3.35;1.98;;;8.40;99.90;;;;;;5005418;28;20026;-77
2024/01/31 09:09:08;;;;;;;2.30;2.15;;;8.50;99.90;;;;;;4996404;28;20042;-76
2024/01/31 09:11:34;;;;;;;3.58;1.88;;;8.60;99.90;;;;;;4994094;28;20038;-76
2024/01/31 09:14:00;;;;;;;4.45;4.03;;;8.60;99.90;;;;;;4997965;28;20110;-76
2024/01/31 09:16:28;;;;;;;1.85;1.70;;;8.70;99.90;;;;;;5006272;28;20062;-76
2024/01/31 09:18:54;;;;;;;0.43;0.43;;;8.80;99.90;;;;;;5005763;28;20030;-76
2024/01/31 09:21:26;;;;;;;0.10;0.10;;;8.60;99.90;;;;;;5007174;28;20040;-76
2024/01/31 09:23:55;;;;;;;1.33;0.52;;;8.70;99.90;;;;;;5004597;28;20449;-75
2024/01/31 09:26:21;;;;;;;9.77;4.82;;;8.70;99.90;;;;;;5004390;28;20085;-77
2024/01/31 09:28:49;;;;;;;0.20;0.20;;;8.60;99.90;;;;;;4998593;28;20052;-76
2024/01/31 09:31:25;;;;;;;12.93;4.85;;;8.60;99.90;;;;;;4998932;28;20026;-76
2024/01/31 09:33:53;;;;;;;1.60;1.50;;;8.50;99.90;;;;;;5018023;28;20399;-76
2024/01/31 09:36:19;;;;;;;0.57;0.57;;;8.30;99.90;;;;;;4995541;28;20099;-76
2024/01/31 09:38:49;;;;;;;2.58;2.10;;;8.50;99.90;;;;;;5007485;28;20057;-76
2024/01/31 09:41:19;;;;;;;2.65;2.08;;;8.50;99.90;;;;;;5002696;28;20400;-76
2024/01/31 09:43:45;;;;;;;5.38;4.78;;;8.60;99.90;;;;;;5000295;28;20041;-76
2024/01/31 09:46:13;;;;;;;4.10;2.42;;;8.60;99.90;;;;;;4997731;28;20883;-76
2024/01/31 09:48:42;;;;;;;2.75;1.70;;;8.60;99.90;;;;;;5006476;28;20462;-76
2024/01/31 09:51:08;;;;;;;9.65;2.40;;;8.60;99.90;;;;;;5019142;28;20375;-76
2024/01/31 09:53:38;;;;;;;0.32;0.32;;;8.70;99.90;;;;;;5002575;28;20033;-76
2024/01/31 09:56:08;;;;;;;10.32;1.88;;;8.70;99.90;;;;;;5001429;28;20858;-76
2024/01/31 09:58:36;;;;;;;0.70;0.70;;;8.60;99.90;;;;;;5004003;28;20368;-76
2024/01/31 10:01:03;;;;;;;2.53;1.42;;;8.80;99.90;;;;;;5015177;28;20022;-76
2024/01/31 10:03:29;;;;;;;5.75;2.15;;;8.90;99.90;;;;;;4996459;28;20487;-77
2024/01/31 10:05:55;;;;;;;1.70;0.85;;;8.60;99.90;;;;;;5018301;28;20121;-76
2024/01/31 10:08:21;;;;;;;5.28;2.70;;;8.50;99.90;;;;;;5006539;28;20034;-76
2024/01/31 10:10:47;;;;;;;9.25;5.63;;;8.60;99.90;;;;;;4996154;28;20106;-76
2024/01/31 10:13:13;;;;;;;1.42;1.35;;;8.70;99.90;;;;;;4994042;28;20037;-75
2024/01/31 10:15:39;;;;;;;2.75;1.80;;;8.50;99.90;;;;;;5010433;28;20025;-76
2024/01/31 10:18:06;;;;;;;3.88;1.88;;;8.70;99.90;;;;;;5007439;28;20065;-76
2024/01/31 10:20:32;;;;;;;0.03;0.03;;;8.50;99.90;;;;;;5007590;28;20382;-75
2024/01/31 10:23:01;;;;;;;4.53;2.78;;;8.50;99.90;;;;;;5007214;28;20121;-76
2024/01/31 10:25:27;;;;;;;3.03;1.75;;;8.50;99.90;;;;;;5004689;28;20033;-76
2024/01/31 10:27:53;;;;;;;8.13;3.10;;;8.50;99.90;;;;;;5004650;28;20022;-76
2024/01/31 10:30:19;;;;;;;1.30;1.20;;;8.30;99.90;;;;;;5017270;28;20522;-76
2024/01/31 10:32:46;;;;;;;3.97;1.38;;;8.20;99.90;;;;;;5004798;28;20030;-76
2024/01/31 10:35:12;;;;;;;2.10;1.42;;;8.40;99.90;;;;;;5009021;28;20030;-76
2024/01/31 10:37:38;;;;;;;0.63;0.63;;;8.50;99.90;;;;;;5001775;28;20029;-76
2024/01/31 10:40:11;;;;;;;1.95;1.50;;;8.90;99.90;;;;;;4996675;28;20026;-77
2024/01/31 10:42:38;;;;;;;2.95;1.63;;;9.50;99.90;;;;;;5013209;28;20042;-77
2024/01/31 10:45:05;;;;;;;22.67;1.40;;;9.80;99.90;;;;;;5005808;28;20032;-79
2024/01/31 10:47:32;;;;;;;1.33;1.15;;;10.10;99.90;;;;;;5013159;28;20033;-79
2024/01/31 10:49:58;;;;;;;6.15;1.40;;;10.20;99.90;;;;;;5013384;28;20096;-79
2024/01/31 10:52:30;;;;;;;0.15;0.15;;;10.40;99.90;;;;;;5009098;28;20031;-79
2024/01/31 10:54:58;;;;;;;;;;;10.50;99.90;;;;;;5013660;28;20057;-78
2024/01/31 10:57:25;;;;;;;2.38;1.33;;;10.40;99.90;;;;;;5008445;28;20395;-78
2024/01/31 10:59:51;;;;;;;1.23;0.68;;;10.40;99.90;;;;;;5005920;28;20385;-77
2024/01/31 11:02:17;;;;;;;0.15;0.10;;;9.60;99.90;;;;;;5006041;28;20112;-78
2024/01/31 11:04:44;;;;;;;2.25;1.20;;;9.40;99.90;;;;;;5006666;28;20165;-77
2024/01/31 11:07:20;;;;;;;1.15;1.05;;;9.40;99.90;;;;;;4999628;28;20242;-77
2024/01/31 11:09:46;;;;;;;3.10;1.30;;;9.40;99.90;;;;;;4995461;28;20407;-77
2024/01/31 11:12:15;;;;;;;1.73;0.70;;;9.30;99.90;;;;;;5002381;28;20046;-78
2024/01/31 11:14:43;;;;;;;0.35;0.35;;;9.20;99.90;;;;;;5005231;28;20033;-77
2024/01/31 11:17:10;;;;;;;0.85;0.50;;;9.20;99.90;;;;;;5007684;28;20100;-77
2024/01/31 11:19:43;;;;;;;1.85;1.15;;;9.30;99.90;;;;;;5008859;28;20026;-76
2024/01/31 11:22:09;;;;;;;4.65;1.70;;;9.40;99.90;;;;;;5005279;28;20022;-78
2024/01/31 11:24:42;;;;;;;0.85;0.80;;;9.50;99.90;;;;;;5003167;28;20497;-77
2024/01/31 11:27:08;;;;;;;0.00;0.00;;;9.30;99.90;;;;;;5001243;28;20026;-77
2024/01/31 11:29:34;;;;;;;0.30;0.30;;;9.50;99.90;;;;;;5005993;28;20121;-77
2024/01/31 11:32:01;;;;;;;5.53;1.55;;;9.60;99.90;;;;;;4999701;28;20113;-77
2024/01/31 11:34:27;;;;;;;0.10;0.10;;;9.40;99.90;;;;;;5006559;28;20021;-77
2024/01/31 11:36:53;;;;;;;1.70;0.47;;;9.30;99.90;;;;;;5002372;28;20072;-77
2024/01/31 11:39:19;;;;;;;2.20;1.08;;;9.40;99.90;;;;;;5004994;28;20423;-77
2024/01/31 11:41:45;;;;;;;2.20;1.35;;;9.50;99.90;;;;;;4996558;28;20153;-77
2024/01/31 11:44:11;;;;;;;0.35;0.35;;;9.40;99.90;;;;;;5010041;28;20402;-77
2024/01/31 11:46:37;;;;;;;0.40;0.30;;;9.50;99.90;;;;;;5008065;28;20563;-76
2024/01/31 11:49:04;;;;;;;1.88;0.90;;;10.00;99.90;;;;;;5006764;28;20105;-77
2024/01/31 11:51:30;;;;;;;2.58;0.63;;;9.90;99.90;;;;;;5008048;28;20061;-77
2024/01/31 11:53:56;;;;;;;5.53;0.77;;;10.10;99.90;;;;;;5003825;28;20061;-76
2024/01/31 11:56:22;;;;;;;0.45;0.38;;;9.70;99.90;;;;;;5005268;28;20532;-77
2024/01/31 11:58:48;;;;;;;2.17;1.10;;;10.10;99.90;;;;;;5003438;28;20026;-77
2024/01/31 12:01:14;;;;;;;0.10;0.10;;;11.20;99.90;;;;;;5017021;28;20029;-77
2024/01/31 12:03:43;;;;;;;0.30;0.30;;;11.60;99.90;;;;;;5004514;28;20018;-77
2024/01/31 12:06:09;;;;;;;2.25;0.98;;;11.40;99.90;;;;;;5002154;28;20062;-77
2024/01/31 12:08:35;;;;;;;1.58;0.85;;;11.40;99.90;;;;;;5007380;28;20415;-77
2024/01/31 12:11:02;;;;;;;3.10;0.60;;;11.20;99.90;;;;;;4995918;28;20113;-77
2024/01/31 12:13:28;;;;;;;0.38;0.30;;;11.10;99.90;;;;;;4996818;28;20023;-77
2024/01/31 12:15:59;;;;;;;4.22;0.98;;;11.60;99.90;;;;;;5012431;28;20022;-78
2024/01/31 12:18:24;;;;;;;0.82;0.55;;;11.20;99.90;;;;;;5009560;28;20041;-78
2024/01/31 12:21:06;;;;;;;1.90;1.48;;;11.10;99.90;;;;;;5010298;28;20033;-77
2024/01/31 12:23:32;;;;;;;1.08;0.43;;;10.50;99.90;;;;;;5005111;28;20023;-77
2024/01/31 12:25:58;;;;;;;1.85;1.05;;;10.50;99.90;;;;;;5008102;28;20025;-78
2024/01/31 12:28:25;;;;;;;0.43;0.43;;;10.60;99.90;;;;;;5000550;28;20037;-77
2024/01/31 12:30:51;;;;;;;3.75;0.52;;;10.30;99.90;;;;;;5005195;28;20172;-77
2024/01/31 12:33:20;;;;;;;10.18;0.80;;;10.20;99.90;;;;;;4998397;28;20542;-76
2024/01/31 12:35:46;;;;;;;0.30;0.28;;;9.80;99.90;;;;;;5000892;28;20045;-77
2024/01/31 12:38:13;;;;;;;0.47;0.43;;;10.00;99.90;;;;;;4996280;28;20026;-77
2024/01/31 12:40:39;;;;;;;11.02;1.20;;;10.10;99.90;;;;;;4996514;28;20027;-78
2024/01/31 12:43:05;;;;;;;0.28;0.22;;;10.10;99.90;;;;;;4993960;28;20035;-78
2024/01/31 12:45:33;;;;;;;6.25;0.63;;;10.00;99.90;;;;;;5009105;28;20121;-77
2024/01/31 12:47:59;;;;;;;1.80;0.98;;;10.00;99.90;;;;;;5011603;28;20014;-78
2024/01/31 12:50:26;;;;;;;1.33;1.05;;;9.70;99.90;;;;;;4993861;28;20057;-78
2024/01/31 12:52:52;;;;;;;2.47;0.40;;;9.90;99.90;;;;;;5008460;28;20041;-78